sensor_id;sensor_type;location;lat;lon;timestamp;pressure;altitude;pressure_sealevel;temperature;humidity
76460;BME280;65299;46.084;18.762;2023-05-07T00:00:46;100562.72;;;13.79;70.57
76460;BME280;65299;46.084;18.762;2023-05-07T00:03:46;100563.69;;;13.93;70.55
76460;BME280;65299;46.084;18.762;2023-05-07T00:06:47;100558.34;;;13.98;70.48
76460;BME280;65299;46.084;18.762;2023-05-07T00:09:47;100562.25;;;14.10;70.03
76460;BME280;65299;46.084;18.762;2023-05-07T00:12:48;100560.84;;;14.18;69.50
76460;BME280;65299;46.084;18.762;2023-05-07T00:15:48;100562.84;;;14.02;70.30
76460;BME280;65299;46.084;18.762;2023-05-07T00:18:48;100561.66;;;14.19;69.58
76460;BME280;65299;46.084;18.762;2023-05-07T00:21:49;100564.13;;;14.10;69.36
76460;BME280;65299;46.084;18.762;2023-05-07T00:24:49;100565.06;;;13.90;69.59
76460;BME280;65299;46.084;18.762;2023-05-07T00:27:50;100563.53;;;13.79;69.97
76460;BME280;65299;46.084;18.762;2023-05-07T00:30:50;100566.41;;;13.88;70.05
76460;BME280;65299;46.084;18.762;2023-05-07T00:33:51;100565.06;;;13.90;70.26
76460;BME280;65299;46.084;18.762;2023-05-07T00:36:51;100572.94;;;14.10;69.26
76460;BME280;65299;46.084;18.762;2023-05-07T00:39:51;100571.75;;;14.22;68.66
76460;BME280;65299;46.084;18.762;2023-05-07T00:42:52;100569.41;;;14.15;68.68
76460;BME280;65299;46.084;18.762;2023-05-07T00:45:58;100569.47;;;14.10;69.21
76460;BME280;65299;46.084;18.762;2023-05-07T00:48:59;100570.56;;;14.04;69.73
76460;BME280;65299;46.084;18.762;2023-05-07T00:51:59;100577.84;;;14.32;68.26
76460;BME280;65299;46.084;18.762;2023-05-07T00:55:05;100573.13;;;14.19;68.45
76460;BME280;65299;46.084;18.762;2023-05-07T00:58:06;100580.06;;;14.15;68.86
76460;BME280;65299;46.084;18.762;2023-05-07T01:01:07;100575.81;;;14.19;68.29
76460;BME280;65299;46.084;18.762;2023-05-07T01:04:07;100590.56;;;14.06;69.30
76460;BME280;65299;46.084;18.762;2023-05-07T01:07:08;100584.97;;;14.03;69.01
76460;BME280;65299;46.084;18.762;2023-05-07T01:10:09;100579.25;;;13.81;69.56
76460;BME280;65299;46.084;18.762;2023-05-07T01:13:11;100587.84;;;13.78;69.83
76460;BME280;65299;46.084;18.762;2023-05-07T01:16:12;100582.09;;;13.51;70.44
76460;BME280;65299;46.084;18.762;2023-05-07T01:19:14;100585.44;;;13.76;69.99
76460;BME280;65299;46.084;18.762;2023-05-07T01:22:30;100595.03;;;13.77;69.83
76460;BME280;65299;46.084;18.762;2023-05-07T01:25:32;100589.00;;;13.57;70.09
76460;BME280;65299;46.084;18.762;2023-05-07T01:28:32;100590.97;;;13.41;70.99
76460;BME280;65299;46.084;18.762;2023-05-07T01:31:34;100586.03;;;13.63;70.51
76460;BME280;65299;46.084;18.762;2023-05-07T01:34:36;100583.41;;;13.97;69.32
76460;BME280;65299;46.084;18.762;2023-05-07T01:37:38;100578.97;;;13.87;69.18
76460;BME280;65299;46.084;18.762;2023-05-07T01:40:40;100576.78;;;13.94;69.10
76460;BME280;65299;46.084;18.762;2023-05-07T01:43:41;100572.13;;;13.71;69.74
76460;BME280;65299;46.084;18.762;2023-05-07T01:46:41;100584.84;;;13.84;68.89
76460;BME280;65299;46.084;18.762;2023-05-07T01:49:42;100576.78;;;13.51;69.95
76460;BME280;65299;46.084;18.762;2023-05-07T01:52:43;100578.16;;;13.43;71.15
76460;BME280;65299;46.084;18.762;2023-05-07T01:55:43;100573.28;;;13.55;70.35
76460;BME280;65299;46.084;18.762;2023-05-07T01:58:44;100576.63;;;13.76;69.46
76460;BME280;65299;46.084;18.762;2023-05-07T02:01:46;100566.44;;;13.83;68.79
76460;BME280;65299;46.084;18.762;2023-05-07T02:04:47;100567.53;;;13.82;69.37
76460;BME280;65299;46.084;18.762;2023-05-07T02:07:48;100577.97;;;13.73;69.78
76460;BME280;65299;46.084;18.762;2023-05-07T02:10:48;100572.81;;;13.87;69.06
76460;BME280;65299;46.084;18.762;2023-05-07T02:13:50;100572.88;;;13.82;69.76
76460;BME280;65299;46.084;18.762;2023-05-07T02:16:50;100570.72;;;13.84;69.41
76460;BME280;65299;46.084;18.762;2023-05-07T02:19:50;100558.63;;;13.53;69.91
76460;BME280;65299;46.084;18.762;2023-05-07T02:22:51;100566.34;;;13.54;69.60
76460;BME280;65299;46.084;18.762;2023-05-07T02:25:51;100565.22;;;13.16;70.76
76460;BME280;65299;46.084;18.762;2023-05-07T02:28:51;100565.50;;;13.10;70.70
76460;BME280;65299;46.084;18.762;2023-05-07T02:31:52;100557.78;;;12.93;71.09
76460;BME280;65299;46.084;18.762;2023-05-07T02:34:53;100565.28;;;12.86;71.52
76460;BME280;65299;46.084;18.762;2023-05-07T02:37:53;100562.03;;;12.99;71.31
76460;BME280;65299;46.084;18.762;2023-05-07T02:40:54;100556.44;;;12.96;71.29
76460;BME280;65299;46.084;18.762;2023-05-07T02:43:54;100557.34;;;12.61;72.53
76460;BME280;65299;46.084;18.762;2023-05-07T02:46:55;100565.59;;;12.70;72.15
76460;BME280;65299;46.084;18.762;2023-05-07T02:49:55;100564.28;;;12.47;72.55
76460;BME280;65299;46.084;18.762;2023-05-07T02:52:55;100574.94;;;12.62;72.27
76460;BME280;65299;46.084;18.762;2023-05-07T02:55:57;100569.34;;;12.48;72.19
76460;BME280;65299;46.084;18.762;2023-05-07T02:58:57;100568.00;;;12.51;72.52
76460;BME280;65299;46.084;18.762;2023-05-07T03:01:58;100570.69;;;12.56;72.19
76460;BME280;65299;46.084;18.762;2023-05-07T03:04:59;100574.09;;;12.67;71.96
76460;BME280;65299;46.084;18.762;2023-05-07T03:07:59;100572.78;;;12.59;72.66
76460;BME280;65299;46.084;18.762;2023-05-07T03:10:59;100570.88;;;12.75;72.40
76460;BME280;65299;46.084;18.762;2023-05-07T03:14:00;100566.59;;;12.94;71.39
76460;BME280;65299;46.084;18.762;2023-05-07T03:17:00;100561.50;;;13.02;70.59
76460;BME280;65299;46.084;18.762;2023-05-07T03:20:01;100567.34;;;12.99;70.94
76460;BME280;65299;46.084;18.762;2023-05-07T03:23:02;100571.34;;;13.17;70.24
76460;BME280;65299;46.084;18.762;2023-05-07T03:26:02;100576.72;;;13.07;70.58
76460;BME280;65299;46.084;18.762;2023-05-07T03:29:03;100576.94;;;13.10;70.19
76460;BME280;65299;46.084;18.762;2023-05-07T03:32:03;100579.91;;;12.99;70.94
76460;BME280;65299;46.084;18.762;2023-05-07T03:35:04;100589.19;;;13.01;70.89
76460;BME280;65299;46.084;18.762;2023-05-07T03:38:05;100590.28;;;12.95;70.83
76460;BME280;65299;46.084;18.762;2023-05-07T03:41:05;100594.06;;;12.84;70.93
76460;BME280;65299;46.084;18.762;2023-05-07T03:44:06;100590.56;;;12.94;70.86
76460;BME280;65299;46.084;18.762;2023-05-07T03:47:06;100587.91;;;12.99;71.21
76460;BME280;65299;46.084;18.762;2023-05-07T03:50:07;100593.44;;;13.22;70.85
76460;BME280;65299;46.084;18.762;2023-05-07T03:53:07;100601.47;;;13.12;71.23
76460;BME280;65299;46.084;18.762;2023-05-07T03:56:07;100592.09;;;13.20;70.70
76460;BME280;65299;46.084;18.762;2023-05-07T03:59:08;100596.63;;;13.19;70.69
76460;BME280;65299;46.084;18.762;2023-05-07T04:02:08;100597.16;;;13.26;71.39
76460;BME280;65299;46.084;18.762;2023-05-07T04:05:09;100595.44;;;13.51;70.02
76460;BME280;65299;46.084;18.762;2023-05-07T04:08:09;100594.88;;;13.59;70.10
76460;BME280;65299;46.084;18.762;2023-05-07T04:11:10;100605.41;;;13.79;70.23
76460;BME280;65299;46.084;18.762;2023-05-07T04:14:10;100611.44;;;13.99;70.03
76460;BME280;65299;46.084;18.762;2023-05-07T04:17:10;100612.25;;;13.95;70.54
76460;BME280;65299;46.084;18.762;2023-05-07T04:20:14;100609.66;;;13.85;69.82
76460;BME280;65299;46.084;18.762;2023-05-07T04:23:15;100618.75;;;13.79;70.43
76460;BME280;65299;46.084;18.762;2023-05-07T04:26:16;100618.44;;;13.85;70.48
76460;BME280;65299;46.084;18.762;2023-05-07T04:29:16;100623.44;;;13.97;70.44
76460;BME280;65299;46.084;18.762;2023-05-07T04:32:17;100624.97;;;14.08;70.18
76460;BME280;65299;46.084;18.762;2023-05-07T04:35:17;100631.38;;;14.12;69.71
76460;BME280;65299;46.084;18.762;2023-05-07T04:38:18;100635.63;;;14.13;70.56
76460;BME280;65299;46.084;18.762;2023-05-07T04:41:19;100641.47;;;14.15;70.35
76460;BME280;65299;46.084;18.762;2023-05-07T04:44:19;100642.72;;;14.28;70.24
76460;BME280;65299;46.084;18.762;2023-05-07T04:47:20;100639.00;;;14.62;69.59
76460;BME280;65299;46.084;18.762;2023-05-07T04:50:20;100637.25;;;14.81;68.91
76460;BME280;65299;46.084;18.762;2023-05-07T04:53:23;100635.50;;;14.67;69.03
76460;BME280;65299;46.084;18.762;2023-05-07T04:56:24;100636.13;;;14.82;69.44
76460;BME280;65299;46.084;18.762;2023-05-07T04:59:24;100635.72;;;14.99;68.77
76460;BME280;65299;46.084;18.762;2023-05-07T05:02:24;100632.38;;;15.12;68.50
76460;BME280;65299;46.084;18.762;2023-05-07T05:05:25;100641.97;;;15.13;68.13
76460;BME280;65299;46.084;18.762;2023-05-07T05:08:25;100642.66;;;15.24;68.55
76460;BME280;65299;46.084;18.762;2023-05-07T05:11:26;100637.53;;;15.27;67.88
76460;BME280;65299;46.084;18.762;2023-05-07T05:14:27;100644.16;;;15.35;67.74
76460;BME280;65299;46.084;18.762;2023-05-07T05:17:27;100641.63;;;15.48;67.63
76460;BME280;65299;46.084;18.762;2023-05-07T05:20:28;100648.72;;;15.58;67.94
76460;BME280;65299;46.084;18.762;2023-05-07T05:23:28;100652.47;;;15.57;67.66
76460;BME280;65299;46.084;18.762;2023-05-07T05:26:29;100669.84;;;15.59;68.33
76460;BME280;65299;46.084;18.762;2023-05-07T05:29:29;100667.50;;;15.53;68.87
76460;BME280;65299;46.084;18.762;2023-05-07T05:32:31;100677.75;;;15.69;68.64
76460;BME280;65299;46.084;18.762;2023-05-07T05:35:32;100670.56;;;15.65;68.83
76460;BME280;65299;46.084;18.762;2023-05-07T05:38:32;100666.97;;;15.74;68.97
76460;BME280;65299;46.084;18.762;2023-05-07T05:41:33;100678.00;;;15.68;70.03
76460;BME280;65299;46.084;18.762;2023-05-07T05:44:33;100678.66;;;16.02;69.20
76460;BME280;65299;46.084;18.762;2023-05-07T05:47:33;100667.72;;;16.17;68.22
76460;BME280;65299;46.084;18.762;2023-05-07T05:50:34;100668.34;;;16.28;68.81
76460;BME280;65299;46.084;18.762;2023-05-07T05:53:36;100680.28;;;16.35;69.71
76460;BME280;65299;46.084;18.762;2023-05-07T05:56:37;100676.88;;;16.67;68.05
76460;BME280;65299;46.084;18.762;2023-05-07T05:59:38;100679.06;;;17.11;66.56
76460;BME280;65299;46.084;18.762;2023-05-07T06:02:38;100680.16;;;17.10;66.16
76460;BME280;65299;46.084;18.762;2023-05-07T06:05:39;100674.50;;;17.25;66.09
76460;BME280;65299;46.084;18.762;2023-05-07T06:08:39;100680.47;;;17.35;65.45
76460;BME280;65299;46.084;18.762;2023-05-07T06:11:40;100685.06;;;17.49;65.17
76460;BME280;65299;46.084;18.762;2023-05-07T06:14:43;100678.59;;;17.77;65.53
76460;BME280;65299;46.084;18.762;2023-05-07T06:17:43;100685.34;;;17.74;65.07
76460;BME280;65299;46.084;18.762;2023-05-07T06:20:44;100686.94;;;17.89;65.52
76460;BME280;65299;46.084;18.762;2023-05-07T06:23:44;100685.91;;;17.98;66.00
76460;BME280;65299;46.084;18.762;2023-05-07T06:26:44;100685.94;;;18.20;65.49
76460;BME280;65299;46.084;18.762;2023-05-07T06:29:45;100681.56;;;17.89;67.27
76460;BME280;65299;46.084;18.762;2023-05-07T06:32:45;100672.72;;;17.75;67.88
76460;BME280;65299;46.084;18.762;2023-05-07T06:35:46;100674.94;;;18.08;66.69
76460;BME280;65299;46.084;18.762;2023-05-07T06:38:46;100670.63;;;18.57;64.60
76460;BME280;65299;46.084;18.762;2023-05-07T06:41:46;100668.56;;;18.40;64.60
76460;BME280;65299;46.084;18.762;2023-05-07T06:44:47;100673.34;;;18.65;64.35
76460;BME280;65299;46.084;18.762;2023-05-07T06:47:47;100686.59;;;18.84;63.87
76460;BME280;65299;46.084;18.762;2023-05-07T06:50:48;100690.19;;;18.71;63.89
76460;BME280;65299;46.084;18.762;2023-05-07T06:53:48;100678.13;;;18.46;64.51
76460;BME280;65299;46.084;18.762;2023-05-07T06:56:48;100660.75;;;18.30;66.27
76460;BME280;65299;46.084;18.762;2023-05-07T06:59:49;100676.19;;;18.60;64.38
76460;BME280;65299;46.084;18.762;2023-05-07T07:02:49;100683.53;;;18.99;63.98
76460;BME280;65299;46.084;18.762;2023-05-07T07:05:53;100676.59;;;18.76;64.44
76460;BME280;65299;46.084;18.762;2023-05-07T07:08:54;100678.06;;;19.13;63.76
76460;BME280;65299;46.084;18.762;2023-05-07T07:11:54;100683.16;;;19.53;63.64
76460;BME280;65299;46.084;18.762;2023-05-07T07:14:55;100682.94;;;19.11;62.89
76460;BME280;65299;46.084;18.762;2023-05-07T07:17:55;100677.81;;;18.70;65.13
76460;BME280;65299;46.084;18.762;2023-05-07T07:20:56;100682.03;;;19.46;62.83
76460;BME280;65299;46.084;18.762;2023-05-07T07:23:56;100682.31;;;19.36;63.88
76460;BME280;65299;46.084;18.762;2023-05-07T07:26:57;100682.72;;;19.68;62.21
76460;BME280;65299;46.084;18.762;2023-05-07T07:29:57;100682.88;;;19.72;60.12
76460;BME280;65299;46.084;18.762;2023-05-07T07:32:58;100674.34;;;19.96;60.51
76460;BME280;65299;46.084;18.762;2023-05-07T07:36:03;100670.22;;;19.72;60.61
76460;BME280;65299;46.084;18.762;2023-05-07T07:39:03;100675.78;;;20.02;59.43
76460;BME280;65299;46.084;18.762;2023-05-07T07:42:04;100676.25;;;19.87;59.11
76460;BME280;65299;46.084;18.762;2023-05-07T07:45:05;100670.66;;;19.57;61.12
76460;BME280;65299;46.084;18.762;2023-05-07T07:48:06;100674.34;;;19.78;60.53
76460;BME280;65299;46.084;18.762;2023-05-07T07:51:06;100674.47;;;19.26;60.82
76460;BME280;65299;46.084;18.762;2023-05-07T07:54:06;100682.53;;;19.65;59.40
76460;BME280;65299;46.084;18.762;2023-05-07T07:57:07;100684.72;;;20.19;56.70
76460;BME280;65299;46.084;18.762;2023-05-07T08:00:08;100688.19;;;20.28;56.66
76460;BME280;65299;46.084;18.762;2023-05-07T08:03:10;100698.06;;;20.50;55.86
76460;BME280;65299;46.084;18.762;2023-05-07T08:06:10;100692.13;;;20.14;56.85
76460;BME280;65299;46.084;18.762;2023-05-07T08:09:10;100698.31;;;20.14;57.10
76460;BME280;65299;46.084;18.762;2023-05-07T08:12:11;100696.88;;;20.00;57.78
76460;BME280;65299;46.084;18.762;2023-05-07T08:15:12;100701.16;;;20.01;57.67
76460;BME280;65299;46.084;18.762;2023-05-07T08:18:12;100701.00;;;20.06;57.38
76460;BME280;65299;46.084;18.762;2023-05-07T08:21:13;100706.63;;;20.52;56.13
76460;BME280;65299;46.084;18.762;2023-05-07T08:24:14;100703.53;;;21.05;54.56
76460;BME280;65299;46.084;18.762;2023-05-07T08:27:14;100712.31;;;20.33;54.56
76460;BME280;65299;46.084;18.762;2023-05-07T08:30:15;100703.22;;;20.04;56.54
76460;BME280;65299;46.084;18.762;2023-05-07T08:33:16;100704.38;;;20.37;55.69
76460;BME280;65299;46.084;18.762;2023-05-07T08:36:16;100700.34;;;19.92;56.78
76460;BME280;65299;46.084;18.762;2023-05-07T08:39:19;100700.25;;;20.22;56.46
76460;BME280;65299;46.084;18.762;2023-05-07T08:42:23;100702.59;;;20.75;54.54
76460;BME280;65299;46.084;18.762;2023-05-07T08:45:24;100702.63;;;20.41;55.23
76460;BME280;65299;46.084;18.762;2023-05-07T08:48:25;100703.53;;;21.05;53.59
76460;BME280;65299;46.084;18.762;2023-05-07T08:51:27;100705.34;;;21.68;52.22
76460;BME280;65299;46.084;18.762;2023-05-07T08:54:28;100708.69;;;21.27;54.83
76460;BME280;65299;46.084;18.762;2023-05-07T08:57:29;100709.31;;;21.32;55.50
76460;BME280;65299;46.084;18.762;2023-05-07T09:00:30;100707.31;;;21.88;54.35
76460;BME280;65299;46.084;18.762;2023-05-07T09:03:30;100701.38;;;21.65;54.45
76460;BME280;65299;46.084;18.762;2023-05-07T09:06:31;100708.16;;;21.71;54.25
76460;BME280;65299;46.084;18.762;2023-05-07T09:09:34;100704.00;;;22.44;52.87
76460;BME280;65299;46.084;18.762;2023-05-07T09:12:35;100706.13;;;22.39;52.61
76460;BME280;65299;46.084;18.762;2023-05-07T09:15:36;100710.88;;;22.00;53.35
76460;BME280;65299;46.084;18.762;2023-05-07T09:18:43;100717.56;;;22.03;53.20
76460;BME280;65299;46.084;18.762;2023-05-07T09:21:44;100719.59;;;22.68;52.34
76460;BME280;65299;46.084;18.762;2023-05-07T09:24:48;100718.38;;;22.57;51.93
76460;BME280;65299;46.084;18.762;2023-05-07T09:27:49;100719.19;;;22.37;51.72
76460;BME280;65299;46.084;18.762;2023-05-07T09:30:50;100724.22;;;22.47;51.95
76460;BME280;65299;46.084;18.762;2023-05-07T09:33:52;100723.03;;;22.36;53.17
76460;BME280;65299;46.084;18.762;2023-05-07T09:36:53;100716.09;;;22.47;53.77
76460;BME280;65299;46.084;18.762;2023-05-07T09:39:54;100716.44;;;22.45;55.11
76460;BME280;65299;46.084;18.762;2023-05-07T09:42:55;100708.88;;;21.89;55.00
76460;BME280;65299;46.084;18.762;2023-05-07T09:45:55;100703.72;;;22.25;54.76
76460;BME280;65299;46.084;18.762;2023-05-07T09:48:57;100701.00;;;22.25;55.90
76460;BME280;65299;46.084;18.762;2023-05-07T09:52:00;100707.59;;;21.95;55.63
76460;BME280;65299;46.084;18.762;2023-05-07T09:55:02;100708.28;;;21.83;56.47
76460;BME280;65299;46.084;18.762;2023-05-07T09:58:04;100703.88;;;21.41;57.99
76460;BME280;65299;46.084;18.762;2023-05-07T10:01:05;100697.22;;;21.68;58.48
76460;BME280;65299;46.084;18.762;2023-05-07T10:04:06;100695.06;;;21.23;59.78
76460;BME280;65299;46.084;18.762;2023-05-07T10:07:08;100695.91;;;21.74;59.97
76460;BME280;65299;46.084;18.762;2023-05-07T10:10:09;100696.53;;;21.50;59.07
76460;BME280;65299;46.084;18.762;2023-05-07T10:13:10;100699.38;;;21.83;57.72
76460;BME280;65299;46.084;18.762;2023-05-07T10:16:11;100705.69;;;22.16;56.91
76460;BME280;65299;46.084;18.762;2023-05-07T10:19:12;100706.94;;;21.98;57.72
76460;BME280;65299;46.084;18.762;2023-05-07T10:22:13;100702.44;;;22.02;57.11
76460;BME280;65299;46.084;18.762;2023-05-07T10:25:21;100697.22;;;22.17;56.26
76460;BME280;65299;46.084;18.762;2023-05-07T10:28:23;100691.34;;;22.57;55.04
76460;BME280;65299;46.084;18.762;2023-05-07T10:31:41;100692.72;;;22.95;53.88
76460;BME280;65299;46.084;18.762;2023-05-07T10:34:45;100681.72;;;23.85;52.19
76460;BME280;65299;46.084;18.762;2023-05-07T10:37:48;100677.41;;;23.24;52.66
76460;BME280;65299;46.084;18.762;2023-05-07T10:40:50;100676.75;;;23.27;52.12
76460;BME280;65299;46.084;18.762;2023-05-07T10:43:50;100681.41;;;23.62;52.99
76460;BME280;65299;46.084;18.762;2023-05-07T10:47:07;100679.13;;;23.28;52.00
76460;BME280;65299;46.084;18.762;2023-05-07T11:06:15;100666.19;;;24.49;48.17
76460;BME280;65299;46.084;18.762;2023-05-07T11:09:16;100663.91;;;24.51;49.00
76460;BME280;65299;46.084;18.762;2023-05-07T11:12:18;100669.59;;;24.62;48.62
76460;BME280;65299;46.084;18.762;2023-05-07T11:15:47;100666.97;;;25.09;46.29
76460;BME280;65299;46.084;18.762;2023-05-07T11:18:49;100673.47;;;24.33;47.85
76460;BME280;65299;46.084;18.762;2023-05-07T11:21:50;100669.53;;;24.31;47.86
76460;BME280;65299;46.084;18.762;2023-05-07T11:24:50;100666.78;;;24.43;47.20
76460;BME280;65299;46.084;18.762;2023-05-07T11:27:51;100658.47;;;24.95;45.83
76460;BME280;65299;46.084;18.762;2023-05-07T11:30:52;100674.72;;;24.63;46.83
76460;BME280;65299;46.084;18.762;2023-05-07T11:33:53;100661.56;;;24.93;46.06
76460;BME280;65299;46.084;18.762;2023-05-07T11:36:54;100665.66;;;25.03;46.32
76460;BME280;65299;46.084;18.762;2023-05-07T11:40:06;100664.44;;;25.31;45.57
76460;BME280;65299;46.084;18.762;2023-05-07T11:43:11;100655.22;;;24.74;47.36
76460;BME280;65299;46.084;18.762;2023-05-07T11:46:12;100655.69;;;24.76;47.67
76460;BME280;65299;46.084;18.762;2023-05-07T11:49:12;100665.34;;;24.61;47.52
76460;BME280;65299;46.084;18.762;2023-05-07T11:52:13;100665.03;;;24.78;47.21
76460;BME280;65299;46.084;18.762;2023-05-07T11:55:18;100667.06;;;24.53;48.16
76460;BME280;65299;46.084;18.762;2023-05-07T11:58:21;100665.56;;;25.15;46.12
76460;BME280;65299;46.084;18.762;2023-05-07T12:01:22;100658.13;;;24.81;46.03
76460;BME280;65299;46.084;18.762;2023-05-07T12:04:22;100668.66;;;25.13;44.79
76460;BME280;65299;46.084;18.762;2023-05-07T12:07:24;100656.22;;;25.28;44.18
76460;BME280;65299;46.084;18.762;2023-05-07T12:10:25;100658.38;;;25.38;44.15
76460;BME280;65299;46.084;18.762;2023-05-07T12:13:26;100658.19;;;25.62;43.22
76460;BME280;65299;46.084;18.762;2023-05-07T12:16:27;100658.78;;;26.06;42.19
76460;BME280;65299;46.084;18.762;2023-05-07T12:19:28;100659.44;;;25.65;42.59
76460;BME280;65299;46.084;18.762;2023-05-07T12:22:29;100656.16;;;26.09;41.75
76460;BME280;65299;46.084;18.762;2023-05-07T12:25:37;100650.44;;;25.80;40.71
76460;BME280;65299;46.084;18.762;2023-05-07T12:28:38;100646.50;;;26.12;37.96
76460;BME280;65299;46.084;18.762;2023-05-07T12:31:43;100646.66;;;26.61;37.50
76460;BME280;65299;46.084;18.762;2023-05-07T12:34:45;100639.69;;;26.82;36.78
76460;BME280;65299;46.084;18.762;2023-05-07T12:37:54;100642.13;;;27.10;37.41
76460;BME280;65299;46.084;18.762;2023-05-07T12:40:55;100635.13;;;27.91;35.53
76460;BME280;65299;46.084;18.762;2023-05-07T12:43:56;100641.53;;;27.46;36.12
76460;BME280;65299;46.084;18.762;2023-05-07T12:46:58;100642.56;;;27.94;36.49
76460;BME280;65299;46.084;18.762;2023-05-07T12:50:01;100635.81;;;27.84;36.52
76460;BME280;65299;46.084;18.762;2023-05-07T12:53:04;100633.06;;;26.03;39.75
76460;BME280;65299;46.084;18.762;2023-05-07T12:56:06;100624.84;;;26.00;38.00
76460;BME280;65299;46.084;18.762;2023-05-07T12:59:06;100629.97;;;25.35;42.41
76460;BME280;65299;46.084;18.762;2023-05-07T13:02:08;100627.50;;;24.68;41.63
76460;BME280;65299;46.084;18.762;2023-05-07T13:05:08;100622.00;;;25.27;40.60
76460;BME280;65299;46.084;18.762;2023-05-07T13:08:09;100614.50;;;24.74;41.31
76460;BME280;65299;46.084;18.762;2023-05-07T13:11:10;100620.72;;;25.05;41.67
76460;BME280;65299;46.084;18.762;2023-05-07T13:14:11;100618.72;;;25.02;41.34
76460;BME280;65299;46.084;18.762;2023-05-07T13:17:12;100614.81;;;24.72;42.36
76460;BME280;65299;46.084;18.762;2023-05-07T13:20:12;100624.03;;;24.67;44.66
76460;BME280;65299;46.084;18.762;2023-05-07T13:23:13;100624.47;;;24.69;45.08
76460;BME280;65299;46.084;18.762;2023-05-07T13:26:13;100635.63;;;24.52;47.56
76460;BME280;65299;46.084;18.762;2023-05-07T13:29:14;100628.00;;;24.03;52.81
76460;BME280;65299;46.084;18.762;2023-05-07T13:32:14;100631.63;;;23.95;51.70
76460;BME280;65299;46.084;18.762;2023-05-07T13:35:16;100637.06;;;24.34;50.59
76460;BME280;65299;46.084;18.762;2023-05-07T13:38:16;100637.13;;;24.78;51.94
76460;BME280;65299;46.084;18.762;2023-05-07T13:41:17;100637.47;;;24.92;49.58
76460;BME280;65299;46.084;18.762;2023-05-07T13:44:17;100622.00;;;25.58;48.01
76460;BME280;65299;46.084;18.762;2023-05-07T13:47:17;100616.81;;;25.88;47.12
76460;BME280;65299;46.084;18.762;2023-05-07T13:50:18;100616.75;;;26.03;45.34
76460;BME280;65299;46.084;18.762;2023-05-07T13:53:18;100626.50;;;25.19;46.96
76460;BME280;65299;46.084;18.762;2023-05-07T13:56:19;100617.31;;;24.93;46.79
76460;BME280;65299;46.084;18.762;2023-05-07T13:59:20;100626.34;;;24.81;47.33
76460;BME280;65299;46.084;18.762;2023-05-07T14:02:20;100615.59;;;23.62;49.34
76460;BME280;65299;46.084;18.762;2023-05-07T14:05:22;100629.66;;;23.07;51.39
76460;BME280;65299;46.084;18.762;2023-05-07T14:08:25;100617.38;;;23.22;52.12
76460;BME280;65299;46.084;18.762;2023-05-07T14:11:26;100609.38;;;23.01;52.22
76460;BME280;65299;46.084;18.762;2023-05-07T14:14:26;100612.41;;;23.24;52.62
76460;BME280;65299;46.084;18.762;2023-05-07T14:17:26;100623.81;;;23.17;52.27
76460;BME280;65299;46.084;18.762;2023-05-07T14:20:27;100622.13;;;23.13;51.83
76460;BME280;65299;46.084;18.762;2023-05-07T14:23:27;100614.31;;;22.87;51.72
76460;BME280;65299;46.084;18.762;2023-05-07T14:26:28;100613.66;;;22.90;50.22
76460;BME280;65299;46.084;18.762;2023-05-07T14:29:29;100621.25;;;23.33;49.87
76460;BME280;65299;46.084;18.762;2023-05-07T14:32:29;100615.34;;;23.67;49.32
76460;BME280;65299;46.084;18.762;2023-05-07T14:35:30;100617.66;;;23.80;48.90
76460;BME280;65299;46.084;18.762;2023-05-07T14:38:30;100626.19;;;23.55;50.15
76460;BME280;65299;46.084;18.762;2023-05-07T14:41:33;100623.50;;;23.31;51.20
76460;BME280;65299;46.084;18.762;2023-05-07T14:44:36;100616.00;;;22.79;52.64
76460;BME280;65299;46.084;18.762;2023-05-07T14:47:36;100617.97;;;22.58;52.32
76460;BME280;65299;46.084;18.762;2023-05-07T14:53:37;100618.28;;;23.26;50.28
76460;BME280;65299;46.084;18.762;2023-05-07T14:56:38;100615.13;;;23.72;49.11
76460;BME280;65299;46.084;18.762;2023-05-07T14:59:38;100611.69;;;25.17;47.25
76460;BME280;65299;46.084;18.762;2023-05-07T15:02:39;100610.53;;;24.28;48.38
76460;BME280;65299;46.084;18.762;2023-05-07T15:05:39;100610.06;;;23.10;52.72
76460;BME280;65299;46.084;18.762;2023-05-07T15:08:41;100602.63;;;23.55;51.74
76460;BME280;65299;46.084;18.762;2023-05-07T15:11:41;100605.41;;;23.71;50.61
76460;BME280;65299;46.084;18.762;2023-05-07T15:14:42;100600.94;;;23.02;53.62
76460;BME280;65299;46.084;18.762;2023-05-07T15:17:42;100607.34;;;24.10;51.23
76460;BME280;65299;46.084;18.762;2023-05-07T15:20:43;100605.97;;;25.53;46.20
76460;BME280;65299;46.084;18.762;2023-05-07T15:23:43;100605.31;;;24.07;48.54
76460;BME280;65299;46.084;18.762;2023-05-07T15:26:44;100619.50;;;24.87;47.34
76460;BME280;65299;46.084;18.762;2023-05-07T15:29:45;100616.50;;;25.23;46.28
76460;BME280;65299;46.084;18.762;2023-05-07T15:32:45;100609.44;;;25.69;44.53
76460;BME280;65299;46.084;18.762;2023-05-07T15:35:46;100602.03;;;26.88;41.35
76460;BME280;65299;46.084;18.762;2023-05-07T15:38:46;100594.28;;;26.25;42.19
76460;BME280;65299;46.084;18.762;2023-05-07T15:41:47;100596.16;;;25.33;42.59
76460;BME280;65299;46.084;18.762;2023-05-07T15:44:47;100600.75;;;24.98;44.73
76460;BME280;65299;46.084;18.762;2023-05-07T15:47:48;100606.00;;;24.91;45.01
76460;BME280;65299;46.084;18.762;2023-05-07T15:50:48;100599.53;;;24.80;45.68
76460;BME280;65299;46.084;18.762;2023-05-07T15:53:49;100593.31;;;25.99;43.97